Mohammedbey — V3TG8 — position and weather

sailwx.info

Track history (hours):
 
Tides and Currents Weather Stations Pressure Air Temp Water Temp Dewpoint Dewpoint Depression Visibility Wind Speed Wind Dir Waves Ship Positions

Mohammedbey

Last reported at 2017-Sep-21 11:13 UTC. Time now 2017-Sep-24 10:40 UTC.
Position N 33°44' E 030°32'.

Length 120 m; draft 7.2 m.

Type: Cargo ship. MMSI: 312600000.

Date/timePositionNaut miles runAvg speedWind from/ knotsBaromVisibWave heightAir tempDewpointWater temp
2017-Sep-21 11:13N 33°44' E 030°32'7 8.3
2017-Sep-21 10:25N 33°39' E 030°38'4 8.3
2017-Sep-21 09:56N 33°37' E 030°41'10 8.5
2017-Sep-21 08:48N 33°31' E 030°50'42 8.6
2017-Sep-21 03:56N 33°04' E 031°29'4 8.6
2017-Sep-21 03:30N 33°01' E 031°32'4 8.8
2017-Sep-21 03:00N 32°58' E 031°36'5 9.1
2017-Sep-21 02:29N 32°55' E 031°40'6 9.0
2017-Sep-21 01:46N 32°51' E 031°46'2 8.7
2017-Sep-21 01:30N 32°49' E 031°48'7 8.5
2017-Sep-21 00:42N 32°45' E 031°54'2 8.6
2017-Sep-21 00:30N 32°44' E 031°55'4 8.5
2017-Sep-21 00:00N 32°41' E 031°59'  
2017-Sep-13 14:54N 31°11' E 033°49'0 0.0
2017-Sep-13 13:51N 31°11' E 033°49'0 0.0
2017-Sep-13 13:30N 31°11' E 033°49'0 0.0
2017-Sep-13 10:54N 31°11' E 033°49'0 0.0
2017-Sep-13 10:30N 31°11' E 033°49'0 0.0
2017-Sep-13 07:22N 31°11' E 033°49'0 0.0
2017-Sep-13 03:50N 31°11' E 033°49'0 0.0
2017-Sep-12 07:24N 31°11' E 033°48'0 0.0
2017-Sep-12 00:06N 31°11' E 033°48'0 0.0
2017-Sep-11 20:24N 31°11' E 033°48'0 0.0
2017-Sep-11 19:51N 31°11' E 033°48'0 0.0
2017-Sep-11 19:30N 31°11' E 033°48'0 0.0
2017-Sep-11 18:57N 31°11' E 033°48'0 0.0
2017-Sep-11 18:30N 31°11' E 033°48'0 0.0
2017-Sep-11 17:36N 31°11' E 033°48'0 0.5
2017-Sep-11 17:21N 31°11' E 033°48'2 6.8
2017-Sep-11 17:00N 31°13' E 033°47'610.9
2017-Sep-11 16:29N 31°18' E 033°45'  
Track history (hours):
 
Tides and Currents Weather Stations Pressure Air Temp Water Temp Dewpoint Dewpoint Depression Visibility Wind Speed Wind Dir Waves Ship Positions

Mohammedbey

Last reported at 2017-Sep-21 11:13 UTC. Time now 2017-Sep-24 10:40 UTC.
Position N 33°44' E 030°32'.

Length 120 m; draft 7.2 m.

Type: Cargo ship. MMSI: 312600000.

Date/timePositionNaut miles runAvg speedWind from/ knotsBaromVisibWave heightAir tempDewpointWater temp
2017-Sep-21 11:13N 33°44' E 030°32'7 8.3
2017-Sep-21 10:25N 33°39' E 030°38'4 8.3
2017-Sep-21 09:56N 33°37' E 030°41'10 8.5
2017-Sep-21 08:48N 33°31' E 030°50'42 8.6
2017-Sep-21 03:56N 33°04' E 031°29'4 8.6
2017-Sep-21 03:30N 33°01' E 031°32'4 8.8
2017-Sep-21 03:00N 32°58' E 031°36'5 9.1
2017-Sep-21 02:29N 32°55' E 031°40'6 9.0
2017-Sep-21 01:46N 32°51' E 031°46'2 8.7
2017-Sep-21 01:30N 32°49' E 031°48'7 8.5
2017-Sep-21 00:42N 32°45' E 031°54'2 8.6
2017-Sep-21 00:30N 32°44' E 031°55'4 8.5
2017-Sep-21 00:00N 32°41' E 031°59'  
2017-Sep-13 14:54N 31°11' E 033°49'0 0.0
2017-Sep-13 13:51N 31°11' E 033°49'0 0.0
2017-Sep-13 13:30N 31°11' E 033°49'0 0.0
2017-Sep-13 10:54N 31°11' E 033°49'0 0.0
2017-Sep-13 10:30N 31°11' E 033°49'0 0.0
2017-Sep-13 07:22N 31°11' E 033°49'0 0.0
2017-Sep-13 03:50N 31°11' E 033°49'0 0.0
2017-Sep-12 07:24N 31°11' E 033°48'0 0.0
2017-Sep-12 00:06N 31°11' E 033°48'0 0.0
2017-Sep-11 20:24N 31°11' E 033°48'0 0.0
2017-Sep-11 19:51N 31°11' E 033°48'0 0.0
2017-Sep-11 19:30N 31°11' E 033°48'0 0.0
2017-Sep-11 18:57N 31°11' E 033°48'0 0.0
2017-Sep-11 18:30N 31°11' E 033°48'0 0.0
2017-Sep-11 17:36N 31°11' E 033°48'0 0.5
2017-Sep-11 17:21N 31°11' E 033°48'2 6.8
2017-Sep-11 17:00N 31°13' E 033°47'610.9
2017-Sep-11 16:29N 31°18' E 033°45'  

Dump ship's entire track history